Time;durP1;ratioP1;P1;durP2;ratioP2;P2;SDS_P1;SDS_P2;PMS_P1;PMS_P2;Temp;Humidity;BMP_temperature;BMP_pressure;BME280_temperature;BME280_humidity;BME280_pressure;Samples;Min_cycle;Max_cycle;Signal;HPM_P1;HPM_P2
2022/06/22 00:00:20;;;;;;;2.92;2.47;;;12.40;99.90;;;;;;5004628;28;20489;-91
2022/06/22 00:02:50;;;;;;;5.43;2.13;;;12.30;99.90;;;;;;5021765;28;20041;-91
2022/06/22 00:05:22;;;;;;;2.10;1.90;;;12.30;99.90;;;;;;5004852;28;20045;-92
2022/06/22 00:07:53;;;;;;;3.67;1.95;;;12.20;99.90;;;;;;5022887;28;20136;-93
2022/06/22 00:10:44;;;;;;;2.13;1.77;;;12.20;99.90;;;;;;5010352;28;20076;-92
2022/06/22 00:13:19;;;;;;;1.40;1.30;;;12.10;99.90;;;;;;5020034;28;20055;-92
2022/06/22 00:16:01;;;;;;;2.20;1.25;;;12.00;99.90;;;;;;5036649;28;20045;-93
2022/06/22 00:18:34;;;;;;;1.05;1.05;;;12.00;99.90;;;;;;5008508;28;20059;-92
2022/06/22 00:21:16;;;;;;;1.40;1.30;;;11.90;99.90;;;;;;5022741;28;20041;-93
2022/06/22 00:23:45;;;;;;;2.28;1.42;;;11.90;99.90;;;;;;5007555;28;20053;-90
2022/06/22 00:26:24;;;;;;;1.98;1.73;;;11.90;99.90;;;;;;5007198;28;20041;-91
2022/06/22 00:29:04;;;;;;;1.58;1.40;;;11.80;99.90;;;;;;5010658;28;20048;-93
2022/06/22 00:31:30;;;;;;;2.22;1.90;;;11.80;99.90;;;;;;5004121;28;20045;-92
2022/06/22 00:34:16;;;;;;;1.95;1.45;;;11.80;99.90;;;;;;5021241;28;20068;-92
2022/06/22 00:36:46;;;;;;;1.85;1.38;;;11.70;99.90;;;;;;5007850;28;20037;-92
2022/06/22 00:39:24;;;;;;;1.73;1.58;;;11.60;99.90;;;;;;5006470;28;20088;-91
2022/06/22 00:42:14;;;;;;;2.78;2.28;;;11.50;99.90;;;;;;5005807;28;20075;-92
2022/06/22 00:45:01;;;;;;;2.20;2.00;;;11.50;99.90;;;;;;5032474;28;20046;-93
2022/06/22 00:47:35;;;;;;;2.22;1.80;;;11.40;99.90;;;;;;5022668;28;20454;-91
2022/06/22 00:50:20;;;;;;;1.63;1.30;;;11.30;99.90;;;;;;5024160;28;20054;-91
2022/06/22 00:52:52;;;;;;;2.53;1.33;;;11.30;99.90;;;;;;5001487;28;20639;-92
2022/06/22 00:55:30;;;;;;;1.20;1.10;;;11.20;99.90;;;;;;5016542;28;20565;-93
2022/06/22 00:58:03;;;;;;;1.35;1.10;;;11.20;99.90;;;;;;5018899;28;20041;-91
2022/06/22 01:00:34;;;;;;;1.25;1.10;;;11.10;99.90;;;;;;5020662;28;20091;-92
2022/06/22 01:03:15;;;;;;;1.52;1.17;;;11.10;99.90;;;;;;5007757;28;20037;-92
2022/06/22 01:05:58;;;;;;;1.40;1.30;;;11.10;99.90;;;;;;5006890;28;20127;-92
2022/06/22 01:08:42;;;;;;;1.70;1.60;;;11.10;99.90;;;;;;5023321;28;20104;-92
2022/06/22 01:14:04;;;;;;;;;;;11.00;99.90;;;;;;5025202;28;20044;-93
2022/06/22 01:16:36;;;;;;;2.72;2.53;;;11.00;99.90;;;;;;5013475;28;19928;-92
2022/06/22 01:19:10;;;;;;;;;;;10.90;99.90;;;;;;5005221;28;20045;-91
2022/06/22 01:21:41;;;;;;;3.80;2.03;;;10.90;99.90;;;;;;5008749;28;19917;-91
2022/06/22 01:24:13;;;;;;;1.40;1.30;;;10.90;99.90;;;;;;5013822;28;20042;-93
2022/06/22 01:26:45;;;;;;;;;;;10.80;99.90;;;;;;5023676;28;20045;-92
2022/06/22 01:29:16;;;;;;;1.27;1.20;;;10.80;99.90;;;;;;5024213;28;19921;-92
2022/06/22 01:31:51;;;;;;;1.00;0.90;;;10.80;99.90;;;;;;5022269;28;20033;-90
2022/06/22 01:34:17;;;;;;;1.40;1.30;;;10.80;99.90;;;;;;5012168;28;20083;-90
2022/06/22 01:36:44;;;;;;;1.20;1.10;;;10.70;99.90;;;;;;4989333;28;20048;-92
2022/06/22 01:39:13;;;;;;;0.93;0.93;;;10.60;99.90;;;;;;5019082;28;20124;-91
2022/06/22 01:42:04;;;;;;;3.42;1.63;;;10.60;99.90;;;;;;5010061;28;20513;-93
2022/06/22 01:44:54;;;;;;;1.88;1.77;;;10.60;99.90;;;;;;5006901;28;20128;-91
2022/06/22 01:47:39;;;;;;;2.55;2.05;;;10.50;99.90;;;;;;5005667;28;20059;-91
2022/06/22 01:50:17;;;;;;;2.30;1.90;;;10.50;99.90;;;;;;5021565;28;20064;-93
2022/06/22 01:53:19;;;;;;;2.60;1.80;;;10.30;99.90;;;;;;5005359;28;20049;-91
2022/06/22 01:55:53;;;;;;;3.92;2.28;;;10.40;99.90;;;;;;5016000;28;20036;-91
2022/06/22 01:58:19;;;;;;;6.72;4.25;;;10.40;99.90;;;;;;5004653;28;20479;-92
2022/06/22 02:00:54;;;;;;;4.75;2.95;;;10.30;99.90;;;;;;5004784;28;20147;-92
2022/06/22 02:03:29;;;;;;;3.40;2.40;;;10.30;99.90;;;;;;5006766;28;20044;-92
2022/06/22 02:09:25;;;;;;;3.22;2.80;;;10.20;99.90;;;;;;4996084;28;20053;-93
2022/06/22 02:12:18;;;;;;;3.38;2.90;;;10.20;99.90;;;;;;5009807;28;20075;-92
2022/06/22 02:14:45;;;;;;;5.07;3.40;;;10.10;99.90;;;;;;5018733;28;20041;-91
2022/06/22 02:17:16;;;;;;;3.70;3.33;;;10.10;99.90;;;;;;5002960;28;20102;-91
2022/06/22 02:19:42;;;;;;;3.08;2.78;;;10.10;99.90;;;;;;5018557;28;20033;-91
2022/06/22 02:22:13;;;;;;;4.07;2.58;;;10.00;99.90;;;;;;5002319;28;20048;-91
2022/06/22 02:24:44;;;;;;;3.08;2.70;;;10.00;99.90;;;;;;5010121;28;20121;-93
2022/06/22 02:27:12;;;;;;;3.40;3.10;;;9.90;99.90;;;;;;5004770;28;20032;-91
2022/06/22 02:29:49;;;;;;;3.20;2.80;;;10.00;99.90;;;;;;5015596;28;20056;-92
2022/06/22 02:32:18;;;;;;;9.55;7.18;;;10.10;99.90;;;;;;5017582;28;20052;-92
2022/06/22 02:34:49;;;;;;;10.43;5.60;;;10.10;99.90;;;;;;4999453;28;20033;-92
2022/06/22 02:37:17;;;;;;;9.15;6.75;;;10.10;99.90;;;;;;5020621;28;20045;-92
2022/06/22 02:39:47;;;;;;;8.23;5.10;;;10.10;99.90;;;;;;5003190;28;20091;-94
2022/06/22 02:45:00;;;;;;;3.88;3.50;;;10.10;99.90;;;;;;5022231;28;20055;-91
2022/06/22 02:47:41;;;;;;;5.85;3.63;;;10.00;99.90;;;;;;4984995;28;20044;-91
2022/06/22 02:50:31;;;;;;;4.20;3.80;;;10.00;99.90;;;;;;5004461;28;20057;-92
2022/06/22 02:53:01;;;;;;;4.20;3.60;;;10.00;99.90;;;;;;5014127;28;20156;-92
2022/06/22 02:55:32;;;;;;;4.72;3.30;;;10.10;99.90;;;;;;5003640;28;20048;-92
2022/06/22 02:58:00;;;;;;;4.03;3.10;;;10.00;99.90;;;;;;5018618;28;20045;-92
2022/06/22 03:00:34;;;;;;;5.88;4.18;;;10.00;99.90;;;;;;5002714;28;20033;-91
2022/06/22 03:03:09;;;;;;;6.85;4.30;;;10.10;99.90;;;;;;5009645;28;20055;-92
2022/06/22 03:05:38;;;;;;;4.22;3.47;;;10.00;99.90;;;;;;5010257;28;20044;-93
2022/06/22 03:08:05;;;;;;;3.60;2.90;;;10.00;99.90;;;;;;5018392;28;20107;-91
2022/06/22 03:10:36;;;;;;;3.72;3.05;;;10.00;99.90;;;;;;4987234;28;20049;-92
2022/06/22 03:13:02;;;;;;;3.55;3.00;;;9.90;99.90;;;;;;4994628;28;20037;-94
2022/06/22 03:15:36;;;;;;;2.70;2.50;;;9.90;99.90;;;;;;5024227;28;20049;-93
2022/06/22 03:18:04;;;;;;;4.22;2.90;;;9.80;99.90;;;;;;5012281;28;20113;-93
2022/06/22 03:20:39;;;;;;;3.47;3.05;;;9.80;99.90;;;;;;4981291;28;20457;-93
2022/06/22 03:23:18;;;;;;;3.25;2.90;;;9.80;99.90;;;;;;5007067;28;20049;-93
2022/06/22 03:26:11;;;;;;;2.92;2.53;;;9.80;99.90;;;;;;5011092;28;20044;-92
2022/06/22 03:28:41;;;;;;;4.13;2.83;;;9.70;99.90;;;;;;4991229;28;20053;-94
2022/06/22 03:31:14;;;;;;;2.10;1.90;;;9.70;99.90;;;;;;4997587;28;20030;-94
2022/06/22 03:33:51;;;;;;;2.03;1.50;;;9.70;99.90;;;;;;5009416;28;20053;-92
2022/06/22 03:36:45;;;;;;;1.60;1.50;;;9.60;99.90;;;;;;5010428;28;20089;-93
2022/06/22 03:39:14;;;;;;;2.03;1.92;;;9.70;99.90;;;;;;4995593;28;20060;-96
2022/06/22 03:41:55;;;;;;;2.22;2.03;;;9.60;99.90;;;;;;4995841;28;20048;-93
2022/06/22 03:44:37;;;;;;;2.20;2.00;;;9.60;99.90;;;;;;5010248;28;20041;-93
2022/06/22 03:47:11;;;;;;;2.25;1.98;;;9.50;99.90;;;;;;4991839;28;20041;-93
2022/06/22 03:49:42;;;;;;;2.05;1.90;;;9.60;99.90;;;;;;4996763;28;20038;-93
2022/06/22 03:52:17;;;;;;;2.47;2.28;;;9.50;99.90;;;;;;5008854;28;20135;-93
2022/06/22 03:54:51;;;;;;;2.00;1.85;;;9.50;99.90;;;;;;5026373;28;20122;-94
2022/06/22 03:57:23;;;;;;;3.05;2.20;;;9.50;99.90;;;;;;5007092;28;20660;-94
2022/06/22 03:59:49;;;;;;;1.95;1.85;;;9.50;99.90;;;;;;5011606;28;20167;-94
2022/06/22 04:02:18;;;;;;;2.90;2.70;;;9.50;99.90;;;;;;4993824;28;20450;-92
2022/06/22 04:04:54;;;;;;;4.20;2.65;;;9.50;99.90;;;;;;4995567;28;20041;-93
2022/06/22 04:07:21;;;;;;;2.67;2.40;;;9.50;99.90;;;;;;4997522;28;21078;-93
2022/06/22 04:09:55;;;;;;;2.70;2.50;;;9.60;99.90;;;;;;4978381;28;20045;-92
2022/06/22 04:12:40;;;;;;;2.95;2.75;;;9.60;99.90;;;;;;5016339;28;20095;-92
2022/06/22 04:15:42;;;;;;;3.97;3.17;;;9.70;99.90;;;;;;5013117;28;20684;-94
2022/06/22 04:18:21;;;;;;;3.85;3.13;;;9.70;99.90;;;;;;4992905;28;20084;-92
2022/06/22 04:20:55;;;;;;;5.43;3.67;;;9.70;99.90;;;;;;4995290;28;20044;-93
2022/06/22 04:23:30;;;;;;;5.45;4.15;;;9.80;99.90;;;;;;4994517;28;20044;-93
2022/06/22 04:26:06;;;;;;;6.55;4.03;;;9.80;99.90;;;;;;4997942;28;20056;-94
2022/06/22 04:28:36;;;;;;;6.40;4.78;;;9.90;99.90;;;;;;4997647;28;20135;-95
2022/06/22 04:31:05;;;;;;;5.47;4.15;;;10.00;99.90;;;;;;5016064;28;20044;-93
2022/06/22 04:33:39;;;;;;;4.20;3.80;;;10.00;99.90;;;;;;5006327;28;20045;-94
2022/06/22 04:36:19;;;;;;;4.18;3.78;;;10.00;99.90;;;;;;5029063;28;20068;-93
2022/06/22 04:39:04;;;;;;;4.30;3.90;;;10.10;99.90;;;;;;5016934;28;20056;-92
2022/06/22 04:41:35;;;;;;;4.95;4.03;;;10.20;99.90;;;;;;5034448;28;20041;-94
2022/06/22 04:44:04;;;;;;;4.75;4.30;;;10.20;99.90;;;;;;5009155;28;20049;-95
2022/06/22 04:46:34;;;;;;;4.60;4.20;;;10.30;99.90;;;;;;5020496;28;20075;-93
2022/06/22 04:49:06;;;;;;;5.05;4.28;;;10.30;99.90;;;;;;5043055;28;20057;-93
2022/06/22 04:51:37;;;;;;;6.72;6.03;;;10.40;99.90;;;;;;5000212;28;20041;-95
2022/06/22 04:54:26;;;;;;;5.45;4.82;;;10.50;99.90;;;;;;5003540;28;20045;-96
2022/06/22 04:56:54;;;;;;;5.25;4.70;;;10.50;99.90;;;;;;5015319;28;20057;-96
2022/06/22 04:59:21;;;;;;;6.38;5.43;;;10.60;99.90;;;;;;4982056;28;20044;-95
2022/06/22 05:01:57;;;;;;;6.68;5.80;;;10.70;99.90;;;;;;5001061;28;20084;-93
2022/06/22 05:04:30;;;;;;;12.55;8.50;;;10.80;99.90;;;;;;4998617;28;20049;-92
2022/06/22 05:07:41;;;;;;;14.75;10.80;;;10.90;99.90;;;;;;5019451;28;20053;-96
2022/06/22 05:10:24;;;;;;;16.27;10.15;;;11.00;99.90;;;;;;5000906;28;20052;-95
2022/06/22 05:12:56;;;;;;;13.65;10.07;;;11.10;99.90;;;;;;5013267;28;20053;-95
2022/06/22 05:15:29;;;;;;;11.47;9.60;;;11.30;99.90;;;;;;5021829;28;20104;-96
2022/06/22 05:17:57;;;;;;;16.65;11.23;;;11.40;99.90;;;;;;5003230;28;20081;-95
2022/06/22 05:20:49;;;;;;;13.27;9.93;;;11.50;99.90;;;;;;5003792;28;20123;-91
2022/06/22 05:23:17;;;;;;;17.50;11.95;;;11.60;99.90;;;;;;5003522;28;20048;-95
2022/06/22 05:25:46;;;;;;;20.73;14.00;;;11.70;99.90;;;;;;5002062;28;20044;-93
2022/06/22 05:28:17;;;;;;;24.13;15.27;;;11.80;99.90;;;;;;5014772;28;20079;-94
2022/06/22 05:30:54;;;;;;;24.35;15.65;;;11.90;99.90;;;;;;4998538;28;20064;-92
2022/06/22 05:33:25;;;;;;;19.23;15.13;;;12.00;99.90;;;;;;5017507;28;20108;-96
2022/06/22 05:35:58;;;;;;;24.65;15.82;;;12.10;99.90;;;;;;5002906;28;20388;-91
2022/06/22 05:38:26;;;;;;;21.80;16.70;;;12.30;99.90;;;;;;4995160;28;20044;-93
2022/06/22 05:40:53;;;;;;;24.05;16.83;;;12.30;99.90;;;;;;4985813;28;20156;-91
2022/06/22 05:43:20;;;;;;;29.23;15.77;;;12.50;99.90;;;;;;5000224;28;20053;-92
2022/06/22 05:45:52;;;;;;;24.33;16.52;;;12.50;99.90;;;;;;5012629;28;20136;-91
2022/06/22 05:48:23;;;;;;;20.73;16.98;;;12.70;99.90;;;;;;4992667;28;20045;-91
2022/06/22 05:51:19;;;;;;;22.27;16.67;;;12.70;99.90;;;;;;4993860;28;20072;-91
2022/06/22 05:53:49;;;;;;;26.38;17.15;;;12.80;99.90;;;;;;5014813;28;20491;-93
2022/06/22 05:56:53;;;;;;;21.67;17.35;;;12.90;99.90;;;;;;5005189;28;20048;-93
2022/06/22 05:59:30;;;;;;;;;;;13.00;99.90;;;;;;5028117;28;20044;-92
2022/06/22 06:02:21;;;;;;;24.33;16.20;;;13.20;99.90;;;;;;5000156;28;19920;-93
2022/06/22 06:05:06;;;;;;;22.98;14.60;;;13.20;99.90;;;;;;5004237;28;20483;-92
2022/06/22 06:07:50;;;;;;;21.45;14.20;;;13.40;99.90;;;;;;5006327;28;20484;-92
2022/06/22 06:10:20;;;;;;;20.70;14.80;;;13.50;99.90;;;;;;5016418;28;20044;-92
2022/06/22 06:12:58;;;;;;;20.83;14.55;;;13.60;99.90;;;;;;4999076;28;20511;-93
2022/06/22 06:15:29;;;;;;;23.27;14.45;;;13.70;99.90;;;;;;5032141;28;20045;-92
2022/06/22 06:17:59;;;;;;;17.52;13.35;;;13.80;99.90;;;;;;5021647;28;20514;-93
2022/06/22 06:20:38;;;;;;;21.48;15.68;;;13.90;99.90;;;;;;5024327;28;20072;-93
2022/06/22 06:23:38;;;;;;;19.00;13.55;;;14.10;99.90;;;;;;5001495;28;20472;-94
2022/06/22 06:29:14;;;;;;;17.10;11.77;;;14.30;99.90;;;;;;5016145;28;20079;-93
2022/06/22 06:32:00;;;;;;;15.68;10.85;;;14.40;99.90;;;;;;5001767;28;20044;-92
2022/06/22 06:34:40;;;;;;;13.25;8.20;;;14.60;99.90;;;;;;5018011;28;20059;-93
2022/06/22 06:37:38;;;;;;;13.80;7.93;;;14.70;99.90;;;;;;5002276;28;20052;-94
2022/06/22 06:40:06;;;;;;;13.80;7.38;;;14.90;99.90;;;;;;5003297;28;20037;-92
2022/06/22 06:42:39;;;;;;;13.35;7.20;;;15.00;99.90;;;;;;4990447;28;20048;-94
2022/06/22 06:45:15;;;;;;;9.48;6.30;;;15.10;99.90;;;;;;5008338;28;20045;-93
2022/06/22 06:47:47;;;;;;;13.02;6.70;;;15.20;99.90;;;;;;5008685;28;20048;-92
2022/06/22 06:50:38;;;;;;;18.02;6.05;;;15.40;99.90;;;;;;5028504;28;20045;-93
2022/06/22 06:53:22;;;;;;;10.63;5.57;;;15.50;99.90;;;;;;5007886;28;20077;-93
2022/06/22 06:56:11;;;;;;;11.73;6.05;;;15.70;99.90;;;;;;5010939;28;20078;-93
2022/06/22 06:59:12;;;;;;;10.88;4.90;;;15.80;99.90;;;;;;5033301;28;20037;-94
2022/06/22 07:01:44;;;;;;;11.07;5.57;;;15.90;99.90;;;;;;5023308;28;20041;-93
2022/06/22 07:04:15;;;;;;;10.75;5.47;;;16.00;99.90;;;;;;4983190;28;20471;-91
2022/06/22 07:06:44;;;;;;;12.35;6.40;;;16.10;99.90;;;;;;4996319;28;20058;-94
2022/06/22 07:09:28;;;;;;;10.35;6.20;;;16.20;99.90;;;;;;4986641;28;20050;-92
2022/06/22 07:12:17;;;;;;;11.68;6.80;;;16.30;99.90;;;;;;5019792;28;20042;-93
2022/06/22 07:14:44;;;;;;;11.77;6.30;;;16.40;99.90;;;;;;4984352;28;20066;-93
2022/06/22 07:17:15;;;;;;;9.88;6.65;;;16.50;99.90;;;;;;4970492;28;20048;-93
2022/06/22 07:19:58;;;;;;;11.55;7.18;;;16.70;99.90;;;;;;4988194;28;20034;-93
2022/06/22 07:22:50;;;;;;;11.27;6.70;;;16.90;99.90;;;;;;4998457;28;20136;-92
2022/06/22 07:25:30;;;;;;;10.93;6.82;;;16.90;99.90;;;;;;4984420;28;20038;-92
2022/06/22 07:28:21;;;;;;;12.15;6.38;;;17.00;99.90;;;;;;4980959;28;20408;-92
2022/06/22 07:31:06;;;;;;;13.00;6.50;;;17.10;99.90;;;;;;4986261;28;20137;-92
2022/06/22 07:33:48;;;;;;;10.48;5.97;;;17.30;99.90;;;;;;4984178;28;20046;-93
2022/06/22 07:36:26;;;;;;;12.23;6.57;;;17.30;99.90;;;;;;4976102;28;20046;-93
2022/06/22 07:39:02;;;;;;;11.73;6.03;;;17.50;99.90;;;;;;4984704;28;20113;-92
2022/06/22 07:41:29;;;;;;;9.38;5.85;;;17.70;99.90;;;;;;4999215;28;20076;-94
2022/06/22 07:44:11;;;;;;;16.23;6.10;;;17.70;99.90;;;;;;4982976;28;20097;-92
2022/06/22 07:47:08;;;;;;;8.90;5.85;;;17.80;99.90;;;;;;4981256;28;20081;-92
2022/06/22 07:50:06;;;;;;;14.77;6.40;;;17.90;99.90;;;;;;4991949;28;20203;-94
2022/06/22 07:52:40;;;;;;;12.13;6.13;;;18.00;99.90;;;;;;5011792;28;20057;-93
2022/06/22 07:55:32;;;;;;;12.90;5.25;;;18.10;99.90;;;;;;4986358;28;20042;-93
2022/06/22 07:58:22;;;;;;;8.68;5.35;;;18.30;99.90;;;;;;4987373;28;20056;-92
2022/06/22 08:00:52;;;;;;;8.88;5.28;;;18.40;99.90;;;;;;4986725;28;20506;-92
2022/06/22 08:03:27;;;;;;;8.57;5.60;;;18.50;99.90;;;;;;4986695;28;20098;-94
2022/06/22 08:05:57;;;;;;;12.18;6.38;;;18.50;99.90;;;;;;4982515;28;20042;-92
2022/06/22 08:08:34;;;;;;;11.07;5.70;;;18.60;99.90;;;;;;5018009;28;20069;-92
2022/06/22 08:11:34;;;;;;;11.82;6.05;;;18.70;99.90;;;;;;5001040;28;20057;-93
2022/06/22 08:14:12;;;;;;;13.10;6.53;;;18.90;99.90;;;;;;4984879;28;20127;-92
2022/06/22 08:16:48;;;;;;;13.80;6.38;;;19.10;99.90;;;;;;5007951;28;20128;-94
2022/06/22 08:19:14;;;;;;;10.38;4.93;;;19.20;99.90;;;;;;5002015;28;20046;-92
2022/06/22 08:21:47;;;;;;;9.68;5.10;;;19.30;99.90;;;;;;4991804;28;20044;-93
2022/06/22 08:24:15;;;;;;;9.38;5.32;;;19.50;99.90;;;;;;4987868;28;20081;-92
2022/06/22 08:26:42;;;;;;;9.43;4.57;;;19.60;99.90;;;;;;5025720;28;20077;-92
2022/06/22 08:29:08;;;;;;;13.90;5.10;;;19.60;99.90;;;;;;5011667;28;20131;-92
2022/06/22 08:31:45;;;;;;;10.75;4.72;;;19.70;99.90;;;;;;5008936;28;20049;-96
2022/06/22 08:34:15;;;;;;;11.15;4.55;;;19.80;99.90;;;;;;5005146;28;20487;-93
2022/06/22 08:36:52;;;;;;;11.52;4.70;;;20.00;99.60;;;;;;5001523;28;20121;-94
2022/06/22 08:39:23;;;;;;;6.18;4.13;;;20.10;99.10;;;;;;5021174;28;20103;-93
2022/06/22 08:42:10;;;;;;;11.50;4.93;;;20.10;99.20;;;;;;5004002;28;20116;-93
2022/06/22 08:45:01;;;;;;;8.80;4.55;;;20.20;99.00;;;;;;5001458;28;20041;-93
2022/06/22 08:47:54;;;;;;;10.32;4.70;;;20.40;99.50;;;;;;5001973;28;20053;-93
2022/06/22 08:50:53;;;;;;;8.35;4.40;;;20.50;99.00;;;;;;5009284;28;20052;-92
2022/06/22 08:53:44;;;;;;;9.27;4.43;;;20.60;98.90;;;;;;4998211;28;20045;-93
2022/06/22 08:56:35;;;;;;;11.98;4.65;;;20.70;98.10;;;;;;4999982;28;20052;-93
2022/06/22 08:59:20;;;;;;;8.93;3.95;;;20.80;97.30;;;;;;5024347;28;20123;-93
2022/06/22 09:01:57;;;;;;;12.98;4.25;;;20.90;97.50;;;;;;5005451;28;20442;-93
2022/06/22 09:04:31;;;;;;;10.82;3.70;;;21.00;96.90;;;;;;5004071;28;20084;-93
2022/06/22 09:07:15;;;;;;;12.48;3.75;;;21.10;96.10;;;;;;4996685;28;20092;-95
2022/06/22 09:10:03;;;;;;;6.50;4.15;;;21.20;95.60;;;;;;4987488;28;20128;-93
2022/06/22 09:12:35;;;;;;;9.13;4.22;;;21.20;94.00;;;;;;4995567;28;20129;-93
2022/06/22 09:15:06;;;;;;;8.30;3.92;;;21.20;94.50;;;;;;4980851;28;20042;-95
2022/06/22 09:17:51;;;;;;;9.65;3.72;;;21.30;94.70;;;;;;4995494;28;20054;-93
2022/06/22 09:20:38;;;;;;;7.65;3.20;;;21.50;94.40;;;;;;4999336;28;20046;-94
2022/06/22 09:23:23;;;;;;;8.23;3.58;;;21.60;92.50;;;;;;5019893;28;20068;-94
2022/06/22 09:26:08;;;;;;;8.38;3.58;;;21.70;91.90;;;;;;4987836;28;20057;-93
2022/06/22 09:28:52;;;;;;;7.75;3.92;;;21.80;91.80;;;;;;5013347;28;20079;-93
2022/06/22 09:31:25;;;;;;;7.07;3.53;;;21.80;91.40;;;;;;5000481;28;20518;-93
2022/06/22 09:33:51;;;;;;;6.97;3.20;;;21.80;91.50;;;;;;4974141;28;20043;-93
2022/06/22 09:36:23;;;;;;;9.55;3.47;;;21.90;91.60;;;;;;4977795;28;20072;-92
2022/06/22 09:39:09;;;;;;;8.60;3.80;;;22.10;90.30;;;;;;4999076;28;20535;-92
2022/06/22 09:41:59;;;;;;;7.63;3.50;;;22.10;90.90;;;;;;4983535;28;20041;-94
2022/06/22 09:44:53;;;;;;;11.57;4.30;;;22.20;90.30;;;;;;4994765;28;20101;-94
2022/06/22 09:47:29;;;;;;;8.40;3.58;;;22.30;87.60;;;;;;5000447;28;20048;-92
2022/06/22 09:50:17;;;;;;;8.48;4.38;;;22.40;87.60;;;;;;4998032;28;20046;-94
2022/06/22 09:53:08;;;;;;;7.00;3.70;;;22.50;87.00;;;;;;4966082;28;20042;-94
2022/06/22 09:59:04;;;;;;;6.90;3.70;;;22.60;85.30;;;;;;5002366;28;20042;-93
2022/06/22 10:02:08;;;;;;;9.07;4.43;;;22.70;85.90;;;;;;4981558;28;20101;-93
2022/06/22 10:05:04;;;;;;;11.88;4.38;;;22.90;85.90;;;;;;4977283;28;20124;-95
2022/06/22 10:07:40;;;;;;;8.38;4.15;;;23.00;88.80;;;;;;5020764;28;20089;-94
2022/06/22 10:10:28;;;;;;;10.15;5.35;;;23.20;88.00;;;;;;5003085;28;20498;-95
2022/06/22 10:12:54;;;;;;;16.55;6.20;;;23.40;86.90;;;;;;4999629;28;20125;-93
2022/06/22 10:15:32;;;;;;;13.48;5.43;;;23.40;86.20;;;;;;5014781;28;20044;-96
2022/06/22 10:17:58;;;;;;;13.02;5.53;;;23.40;84.30;;;;;;4982597;28;20046;-93
2022/06/22 10:20:37;;;;;;;11.32;4.68;;;23.40;83.30;;;;;;4983034;28;20216;-94
2022/06/22 10:23:30;;;;;;;13.32;5.35;;;23.30;82.60;;;;;;4983321;28;20056;-95
2022/06/22 10:26:22;;;;;;;10.40;4.85;;;23.40;84.00;;;;;;4983893;28;20554;-94
2022/06/22 10:29:02;;;;;;;11.10;4.88;;;23.50;84.60;;;;;;4999993;28;20056;-94
2022/06/22 10:31:42;;;;;;;9.10;4.90;;;23.60;84.80;;;;;;5001463;28;20080;-96
2022/06/22 10:34:38;;;;;;;8.10;4.90;;;23.80;83.70;;;;;;5003219;28;20041;-94
2022/06/22 10:37:46;;;;;;;8.95;4.57;;;23.80;82.60;;;;;;4983771;28;20049;-94
2022/06/22 10:46:14;;;;;;;10.50;4.38;;;24.20;79.70;;;;;;5024621;28;20040;-95
2022/06/22 10:49:04;;;;;;;11.55;4.50;;;24.30;79.90;;;;;;5002728;28;20043;-94
2022/06/22 10:51:43;;;;;;;8.48;3.72;;;24.40;80.50;;;;;;5017232;28;20044;-93
2022/06/22 10:54:33;;;;;;;12.80;4.63;;;24.30;80.50;;;;;;5008670;28;20037;-94
2022/06/22 10:57:17;;;;;;;10.52;5.18;;;24.10;78.40;;;;;;4991190;28;20042;-94
2022/06/22 11:00:15;;;;;;;10.90;4.63;;;24.10;79.50;;;;;;5003608;28;20081;-93
2022/06/22 11:03:09;;;;;;;9.85;4.53;;;24.30;81.60;;;;;;5004567;28;20042;-93
2022/06/22 11:05:55;;;;;;;7.53;4.65;;;24.50;79.10;;;;;;5022288;28;20049;-94
2022/06/22 11:08:42;;;;;;;8.95;4.40;;;24.70;78.40;;;;;;5018751;28;20053;-93
2022/06/22 11:11:17;;;;;;;8.50;4.00;;;24.80;76.60;;;;;;5053239;28;20084;-94
2022/06/22 11:14:20;;;;;;;9.38;4.25;;;24.80;78.10;;;;;;5009542;28;20109;-95
2022/06/22 11:17:19;;;;;;;12.27;4.43;;;25.00;78.90;;;;;;5004238;28;20056;-94
2022/06/22 11:20:18;;;;;;;9.05;4.15;;;25.10;75.20;;;;;;5004106;28;20487;-95
2022/06/22 11:22:51;;;;;;;9.15;4.20;;;24.80;73.20;;;;;;5013792;28;20038;-95
2022/06/22 11:31:56;;;;;;;9.50;4.13;;;24.80;76.40;;;;;;5017160;28;20050;-95
2022/06/22 11:34:45;;;;;;;10.90;4.22;;;25.10;74.70;;;;;;5002905;28;20038;-94
2022/06/22 11:37:14;;;;;;;14.52;4.60;;;25.10;74.20;;;;;;5002535;28;20049;-95
2022/06/22 11:40:02;;;;;;;9.77;4.20;;;25.20;71.60;;;;;;5002649;28;20045;-96
2022/06/22 11:42:49;;;;;;;10.68;3.95;;;25.20;72.70;;;;;;5004521;28;20045;-95
2022/06/22 11:45:56;;;;;;;7.28;3.95;;;25.40;71.90;;;;;;5006433;28;20053;-95
2022/06/22 11:48:47;;;;;;;9.77;4.10;;;25.50;73.10;;;;;;5005647;28;20424;-94
2022/06/22 11:51:13;;;;;;;10.17;4.60;;;25.60;70.80;;;;;;5006251;28;20574;-94
2022/06/22 11:53:58;;;;;;;9.82;4.10;;;25.80;70.60;;;;;;5005243;28;20120;-94
2022/06/22 11:57:10;;;;;;;9.75;3.92;;;25.90;71.20;;;;;;5005428;28;20041;-94
2022/06/22 11:59:48;;;;;;;10.13;4.10;;;26.00;70.50;;;;;;4991764;28;20057;-95
2022/06/22 12:02:38;;;;;;;8.40;4.55;;;26.10;70.20;;;;;;5005256;28;20288;-94
2022/06/22 12:05:10;;;;;;;7.22;3.75;;;26.30;69.00;;;;;;5005528;28;20081;-93
2022/06/22 12:07:53;;;;;;;11.55;4.25;;;26.40;67.50;;;;;;5021495;28;20102;-95
2022/06/22 12:10:41;;;;;;;10.75;3.92;;;26.50;66.60;;;;;;5006190;28;20084;-95
2022/06/22 12:13:25;;;;;;;8.35;3.97;;;26.40;66.20;;;;;;5036978;28;20041;-95
2022/06/22 12:16:09;;;;;;;7.82;3.90;;;26.40;67.20;;;;;;5005130;28;20072;-95
2022/06/22 12:18:59;;;;;;;9.15;4.30;;;26.50;67.80;;;;;;5005259;28;20060;-95
2022/06/22 12:21:40;;;;;;;11.13;4.10;;;26.60;66.60;;;;;;5006241;28;20045;-95
2022/06/22 12:24:56;;;;;;;9.60;4.18;;;26.70;65.80;;;;;;5005491;28;20045;-95
2022/06/22 12:27:28;;;;;;;8.95;4.35;;;26.90;65.80;;;;;;4930128;28;20047;-95
2022/06/22 12:30:02;;;;;;;7.20;3.90;;;26.90;64.90;;;;;;4958178;28;20058;-96
2022/06/22 12:32:47;;;;;;;6.97;4.07;;;26.90;63.60;;;;;;4970258;28;20054;-94
2022/06/22 12:35:34;;;;;;;8.88;3.83;;;27.00;64.50;;;;;;5005183;28;20034;-95
2022/06/22 12:38:08;;;;;;;13.25;4.57;;;27.10;64.10;;;;;;5001521;28;20046;-95
2022/06/22 12:40:48;;;;;;;10.48;4.00;;;27.30;63.10;;;;;;4985270;28;20042;-95
2022/06/22 12:43:41;;;;;;;7.85;4.03;;;27.20;63.80;;;;;;4985525;28;20121;-95
2022/06/22 12:46:36;;;;;;;9.35;3.92;;;27.20;62.10;;;;;;5001815;28;20049;-95
2022/06/22 12:49:18;;;;;;;9.10;3.85;;;27.30;63.40;;;;;;4985613;28;20041;-94
2022/06/22 12:51:56;;;;;;;9.18;4.38;;;27.40;64.90;;;;;;5001351;28;20045;-96
2022/06/22 12:54:48;;;;;;;8.35;4.00;;;27.50;64.40;;;;;;4984220;28;20476;-95
2022/06/22 12:57:18;;;;;;;13.03;3.87;;;27.70;65.00;;;;;;4985717;28;20050;-95
2022/06/22 12:59:53;;;;;;;8.00;4.13;;;27.70;63.40;;;;;;4970336;28;20044;-96
2022/06/22 13:02:27;;;;;;;9.95;4.47;;;27.70;62.90;;;;;;5000930;28;20038;-95
2022/06/22 13:05:09;;;;;;;11.20;4.78;;;27.80;63.10;;;;;;4992946;28;20071;-95
2022/06/22 13:07:46;;;;;;;;;;;27.90;62.10;;;;;;5018080;28;20141;-96
2022/06/22 13:10:22;;;;;;;7.93;4.32;;;28.00;63.50;;;;;;5024706;28;19927;-94
2022/06/22 13:12:58;;;;;;;9.02;4.63;;;27.90;61.90;;;;;;5023288;28;20045;-95
2022/06/22 13:15:29;;;;;;;8.00;4.70;;;27.80;61.70;;;;;;5005100;28;20046;-95
2022/06/22 13:18:24;;;;;;;9.43;5.10;;;27.90;61.20;;;;;;5004485;28;20385;-94
2022/06/22 13:21:14;;;;;;;10.15;5.28;;;27.90;62.30;;;;;;5004049;28;20045;-94
2022/06/22 13:23:51;;;;;;;14.00;5.88;;;27.80;62.10;;;;;;5003512;28;20053;-95
2022/06/22 13:26:49;;;;;;;8.82;4.82;;;27.80;63.60;;;;;;4985394;28;20085;-96
2022/06/22 13:29:32;;;;;;;10.00;5.80;;;27.80;64.00;;;;;;5017199;28;20073;-95
2022/06/22 13:32:05;;;;;;;14.05;5.43;;;27.90;63.30;;;;;;5010857;28;20102;-95
2022/06/22 13:34:42;;;;;;;9.35;5.47;;;27.90;63.60;;;;;;5023265;28;20045;-95
2022/06/22 13:37:30;;;;;;;13.75;5.95;;;27.90;63.80;;;;;;5024205;28;20044;-96
2022/06/22 13:40:31;;;;;;;11.73;4.90;;;27.80;64.00;;;;;;5006537;28;20557;-95
2022/06/22 13:43:33;;;;;;;11.52;5.15;;;27.80;64.50;;;;;;5005008;28;20048;-95
2022/06/22 13:46:17;;;;;;;12.35;5.60;;;27.80;64.00;;;;;;5017426;28;20048;-95
2022/06/22 13:48:49;;;;;;;10.93;4.93;;;27.70;64.20;;;;;;5019117;28;20045;-94
2022/06/22 13:51:51;;;;;;;11.10;5.15;;;27.50;64.60;;;;;;5004840;28;20120;-95
2022/06/22 13:55:00;;;;;;;8.93;4.90;;;27.70;64.70;;;;;;5004343;28;20045;-94
2022/06/22 13:57:47;;;;;;;10.60;5.05;;;27.70;65.20;;;;;;4976380;28;20077;-94
2022/06/22 14:00:29;;;;;;;11.70;5.38;;;27.60;64.70;;;;;;5015942;28;20044;-94
2022/06/22 14:03:23;;;;;;;11.53;5.37;;;27.70;65.00;;;;;;5018593;28;20045;-95
2022/06/22 14:06:26;;;;;;;8.00;4.32;;;27.80;63.70;;;;;;5019049;28;20068;-95
2022/06/22 14:09:19;;;;;;;12.35;5.50;;;27.80;64.80;;;;;;5020120;28;20080;-95
2022/06/22 14:12:15;;;;;;;13.57;4.97;;;27.80;63.20;;;;;;5012272;28;20050;-96
2022/06/22 14:15:01;;;;;;;16.23;4.80;;;27.60;62.90;;;;;;5002105;28;20171;-96
2022/06/22 14:17:41;;;;;;;8.50;5.03;;;27.60;62.80;;;;;;5003391;28;20050;-94